Time;durP1;ratioP1;P1;durP2;ratioP2;P2;SDS_P1;SDS_P2;PMS_P1;PMS_P2;Temp;Humidity;BMP_temperature;BMP_pressure;BME280_temperature;BME280_humidity;BME280_pressure;Samples;Min_cycle;Max_cycle;Signal;HPM_P1;HPM_P2
2022/02/16 00:02:04;;;;;;;;;;;;;;;;;;5049360;28;1456;-68
2022/02/16 00:04:30;;;;;;;;;;;;;;;;;;5049598;28;1314;-68
2022/02/16 00:06:57;;;;;;;;;;;;;;;;;;5059780;23;3575;-74
2022/02/16 00:09:23;;;;;;;;;;;;;;;;;;5029888;28;1012;-74
2022/02/16 00:11:49;;;;;;;;;;;;;;;;;;5030069;28;1210;-74
2022/02/16 00:14:15;;;;;;;;;;;;;;;;;;5029596;28;1922;-74
2022/02/16 00:16:43;;;;;;;;;;;;;;;;;;5030093;28;1314;-74
2022/02/16 00:19:09;;;;;;;;;;;;;;;;;;5032923;28;837;-74
2022/02/16 00:21:35;;;;;;;;;;;;;;;;;;5033594;28;1073;-74
2022/02/16 00:24:04;;;;;;;;;;;;;;;;;;5033511;28;828;-73
2022/02/16 00:26:30;;;;;;;;;;;;;;;;;;5033387;28;1378;-74
2022/02/16 00:28:56;;;;;;;;;;;;;;;;;;5033476;28;801;-74
2022/02/16 00:31:23;;;;;;;;;;;;;;;;;;5015670;28;895;-73
2022/02/16 00:33:51;;;;;;;;;;;;;;;;;;5033144;28;1969;-74
2022/02/16 00:36:18;;;;;;;;;;;;;;;;;;5015434;28;1650;-72
2022/02/16 00:38:44;;;;;;;;;;;;;;;;;;5015596;28;1318;-73
2022/02/16 00:41:10;;;;;;;;;;;;;;;;;;5015724;28;1035;-73
2022/02/16 00:43:36;;;;;;;;;;;;;;;;;;5015210;28;1123;-73
2022/02/16 00:46:03;;;;;;;;;;;;;;;;;;5015312;28;1120;-74
2022/02/16 00:48:29;;;;;;;;;;;;;;;;;;5015173;28;1318;-73
2022/02/16 00:50:57;;;;;;;;;;;;;;;;;;5033054;28;864;-73
2022/02/16 00:53:23;;;;;;;;;;;;;;;;;;5015011;28;1914;-74
2022/02/16 00:55:49;;;;;;;;;;;;;;;;;;5015295;28;1279;-74
2022/02/16 00:58:16;;;;;;;;;;;;;;;;;;5032982;28;1297;-74
2022/02/16 01:00:44;;;;;;;;;;;;;;;;;;5015534;28;1320;-74
2022/02/16 01:03:10;;;;;;;;;;;;;;;;;;5015443;28;1436;-74
2022/02/16 01:05:37;;;;;;;;;;;;;;;;;;5014997;28;884;-74
2022/02/16 01:08:07;;;;;;;;;;;;;;;;;;5014859;28;1314;-74
2022/02/16 01:10:33;;;;;;;;;;;;;;;;;;5032762;28;784;-74
2022/02/16 01:12:59;;;;;;;;;;;;;;;;;;5014674;28;1362;-74
2022/02/16 01:15:27;;;;;;;;;;;;;;;;;;5014516;28;1926;-74
2022/02/16 01:17:54;;;;;;;;;;;;;;;;;;5014855;28;1527;-74
2022/02/16 01:20:28;;;;;;;;;;;;;;;;;;5014809;28;1294;-74
2022/02/16 01:23:07;;;;;;;;;;;;;;;;;;5015007;28;1196;-74
2022/02/16 01:25:33;;;;;;;;;;;;;;;;;;5014444;28;1307;-74
2022/02/16 01:28:06;;;;;;;;;;;;;;;;;;5014774;28;1362;-73
2022/02/16 01:30:37;;;;;;;;;;;;;;;;;;5014246;28;1297;-74
2022/02/16 01:33:16;;;;;;;;;;;;;;;;;;5014585;28;848;-73
2022/02/16 01:35:49;;;;;;;;;;;;;;;;;;5014378;28;1393;-73
2022/02/16 01:38:17;;;;;;;;;;;;;;;;;;5032317;28;1381;-74
2022/02/16 01:40:53;;;;;;;;;;;;;;;;;;5014840;28;1401;-73
2022/02/16 01:43:20;;;;;;;;;;;;;;;;;;5014310;28;1281;-74
2022/02/16 01:45:49;;;;;;;;;;;;;;;;;;5014058;28;1548;-73
2022/02/16 01:48:21;;;;;;;;;;;;;;;;;;5013914;28;1415;-73
2022/02/16 01:50:48;;;;;;;;;;;;;;;;;;5014218;28;1356;-74
2022/02/16 01:53:21;;;;;;;;;;;;;;;;;;5014155;28;1537;-74
2022/02/16 01:55:48;;;;;;;;;;;;;;;;;;5013907;28;1918;-74
2022/02/16 01:58:15;;;;;;;;;;;;;;;;;;5013958;28;1553;-74
2022/02/16 02:01:04;;;;;;;;;;;;;;;;;;5023576;28;1189;-73
2022/02/16 02:03:31;;;;;;;;;;;;;;;;;;5015233;28;1568;-74
2022/02/16 02:06:04;;;;;;;;;;;;;;;;;;5013353;28;1304;-73
2022/02/16 02:08:35;;;;;;;;;;;;;;;;;;5013818;28;1403;-73
2022/02/16 02:11:02;;;;;;;;;;;;;;;;;;5014069;28;1380;-73
2022/02/16 02:13:29;;;;;;;;;;;;;;;;;;5013982;28;1410;-73
2022/02/16 02:16:02;;;;;;;;;;;;;;;;;;5013794;28;1415;-73
2022/02/16 02:18:35;;;;;;;;;;;;;;;;;;5013790;28;1463;-73
2022/02/16 02:21:02;;;;;;;;;;;;;;;;;;5013930;28;1306;-73
2022/02/16 02:23:29;;;;;;;;;;;;;;;;;;5012999;28;1308;-74
2022/02/16 02:25:55;;;;;;;;;;;;;;;;;;5013591;28;1749;-74
2022/02/16 02:28:22;;;;;;;;;;;;;;;;;;5013737;28;1263;-73
2022/02/16 02:30:49;;;;;;;;;;;;;;;;;;5013854;28;1340;-74
2022/02/16 02:33:17;;;;;;;;;;;;;;;;;;5013759;28;1218;-74
2022/02/16 02:35:43;;;;;;;;;;;;;;;;;;5030913;28;1985;-74
2022/02/16 02:38:11;;;;;;;;;;;;;;;;;;5013517;28;1342;-73
2022/02/16 02:40:37;;;;;;;;;;;;;;;;;;5030554;28;828;-72
2022/02/16 02:43:06;;;;;;;;;;;;;;;;;;5013935;28;1375;-74
2022/02/16 02:45:34;;;;;;;;;;;;;;;;;;5013930;28;1188;-72
2022/02/16 02:48:03;;;;;;;;;;;;;;;;;;5013459;28;1356;-74
2022/02/16 02:50:29;;;;;;;;;;;;;;;;;;5013524;28;1017;-73
2022/02/16 02:52:56;;;;;;;;;;;;;;;;;;5031791;28;1049;-72
2022/02/16 02:55:24;;;;;;;;;;;;;;;;;;5013617;28;1918;-73
2022/02/16 02:57:50;;;;;;;;;;;;;;;;;;5031351;28;1302;-73
2022/02/16 03:00:16;;;;;;;;;;;;;;;;;;5013456;28;1229;-73
2022/02/16 03:02:45;;;;;;;;;;;;;;;;;;5013199;28;1590;-72
2022/02/16 03:05:12;;;;;;;;;;;;;;;;;;5013007;28;1207;-73
2022/02/16 03:07:38;;;;;;;;;;;;;;;;;;5013045;28;1330;-73
2022/02/16 03:10:05;;;;;;;;;;;;;;;;;;5013313;28;1292;-74
2022/02/16 03:12:32;;;;;;;;;;;;;;;;;;5013126;28;1306;-74
2022/02/16 03:14:59;;;;;;;;;;;;;;;;;;5012614;28;1914;-74
2022/02/16 03:17:28;;;;;;;;;;;;;;;;;;5013949;28;1795;-72
2022/02/16 03:19:56;;;;;;;;;;;;;;;;;;5021446;28;1578;-73
2022/02/16 03:22:23;;;;;;;;;;;;;;;;;;5023110;28;1301;-72
2022/02/16 03:24:49;;;;;;;;;;;;;;;;;;5029431;28;928;-72
2022/02/16 03:27:16;;;;;;;;;;;;;;;;;;5029615;28;1245;-72
2022/02/16 03:29:55;;;;;;;;;;;;;;;;;;5029410;28;1444;-72
2022/02/16 03:32:22;;;;;;;;;;;;;;;;;;5029356;28;1461;-72
2022/02/16 03:34:48;;;;;;;;;;;;;;;;;;5028925;28;1964;-72
2022/02/16 03:37:14;;;;;;;;;;;;;;;;;;5030443;28;1383;-72
2022/02/16 03:39:41;;;;;;;;;;;;;;;;;;5028823;28;1188;-72
2022/02/16 03:42:08;;;;;;;;;;;;;;;;;;5029151;28;1184;-72
2022/02/16 03:44:34;;;;;;;;;;;;;;;;;;5028888;28;888;-72
2022/02/16 03:47:05;;;;;;;;;;;;;;;;;;5029389;28;2260;-72
2022/02/16 03:49:31;;;;;;;;;;;;;;;;;;5029634;28;1207;-72
2022/02/16 03:51:59;;;;;;;;;;;;;;;;;;5029028;28;1341;-72
2022/02/16 03:54:26;;;;;;;;;;;;;;;;;;5032119;28;1965;-72
2022/02/16 03:56:52;;;;;;;;;;;;;;;;;;5033958;28;1377;-72
2022/02/16 03:59:19;;;;;;;;;;;;;;;;;;5032832;28;1531;-72
2022/02/16 04:02:11;;;;;;;;;;;;;;;;;;5032780;28;1035;-71
2022/02/16 04:04:37;;;;;;;;;;;;;;;;;;5032576;28;1627;-71
2022/02/16 04:07:04;;;;;;;;;;;;;;;;;;5032528;28;1377;-72
2022/02/16 04:09:30;;;;;;;;;;;;;;;;;;5034084;28;1515;-72
2022/02/16 04:11:57;;;;;;;;;;;;;;;;;;5016599;28;1504;-72
2022/02/16 04:14:23;;;;;;;;;;;;;;;;;;5015960;28;1914;-72
2022/02/16 04:16:50;;;;;;;;;;;;;;;;;;5016217;28;1608;-72
2022/02/16 04:19:18;;;;;;;;;;;;;;;;;;5016226;28;896;-71
2022/02/16 04:21:45;;;;;;;;;;;;;;;;;;5015870;28;1332;-72
2022/02/16 04:24:12;;;;;;;;;;;;;;;;;;5015801;28;1300;-71
2022/02/16 04:26:38;;;;;;;;;;;;;;;;;;5015793;28;1399;-71
2022/02/16 04:29:04;;;;;;;;;;;;;;;;;;5015856;28;1393;-71
2022/02/16 04:31:37;;;;;;;;;;;;;;;;;;5015731;28;1273;-71
2022/02/16 04:34:04;;;;;;;;;;;;;;;;;;5015523;28;1215;-72
2022/02/16 04:36:33;;;;;;;;;;;;;;;;;;5015496;28;1918;-72
2022/02/16 04:39:01;;;;;;;;;;;;;;;;;;5015842;28;1759;-72
2022/02/16 04:41:30;;;;;;;;;;;;;;;;;;5015828;28;1474;-71
2022/02/16 04:44:01;;;;;;;;;;;;;;;;;;5015595;28;1691;-72
2022/02/16 04:46:27;;;;;;;;;;;;;;;;;;5015866;28;1472;-72
2022/02/16 04:48:53;;;;;;;;;;;;;;;;;;5015442;28;1236;-72
2022/02/16 04:51:20;;;;;;;;;;;;;;;;;;5015354;28;1192;-72
2022/02/16 04:53:48;;;;;;;;;;;;;;;;;;5015420;28;2136;-72
2022/02/16 04:56:16;;;;;;;;;;;;;;;;;;5014995;28;1926;-72
2022/02/16 04:58:42;;;;;;;;;;;;;;;;;;5015229;28;1392;-71
2022/02/16 05:01:09;;;;;;;;;;;;;;;;;;5015328;28;1292;-72
2022/02/16 05:03:37;;;;;;;;;;;;;;;;;;5013969;28;1568;-72
2022/02/16 05:06:04;;;;;;;;;;;;;;;;;;5014592;28;1461;-72
2022/02/16 05:08:31;;;;;;;;;;;;;;;;;;5013772;28;1404;-72
2022/02/16 05:10:58;;;;;;;;;;;;;;;;;;5032542;28;1503;-71
2022/02/16 05:13:44;;;;;;;;;;;;;;;;;;5011736;28;1586;-71
2022/02/16 05:16:10;;;;;;;;;;;;;;;;;;5013485;28;1987;-70
2022/02/16 05:18:37;;;;;;;;;;;;;;;;;;5014542;28;1574;-70
2022/02/16 05:21:07;;;;;;;;;;;;;;;;;;5014510;28;2391;-70
2022/02/16 05:23:34;;;;;;;;;;;;;;;;;;5031056;28;1415;-70
2022/02/16 05:26:08;;;;;;;;;;;;;;;;;;5014274;28;1539;-70
2022/02/16 05:28:34;;;;;;;;;;;;;;;;;;4994765;28;1418;-70
2022/02/16 05:31:01;;;;;;;;;;;;;;;;;;4997782;28;1483;-70
2022/02/16 05:33:28;;;;;;;;;;;;;;;;;;5010977;28;1617;-70
2022/02/16 05:35:54;;;;;;;;;;;;;;;;;;5030073;28;1910;-70
2022/02/16 05:38:21;;;;;;;;;;;;;;;;;;5013861;28;1519;-70
2022/02/16 05:40:48;;;;;;;;;;;;;;;;;;5014676;28;1426;-70
2022/02/16 05:43:17;;;;;;;;;;;;;;;;;;5017530;28;1499;-70
2022/02/16 05:45:45;;;;;;;;;;;;;;;;;;5014042;28;1558;-70
2022/02/16 05:48:19;;;;;;;;;;;;;;;;;;5013250;28;1527;-70
2022/02/16 05:50:46;;;;;;;;;;;;;;;;;;5013994;28;1603;-70
2022/02/16 05:53:12;;;;;;;;;;;;;;;;;;5014333;28;1337;-70
2022/02/16 05:55:39;;;;;;;;;;;;;;;;;;5013719;28;1919;-71
2022/02/16 05:58:05;;;;;;;;;;;;;;;;;;5014171;28;1330;-70
2022/02/16 06:00:33;;;;;;;;;;;;;;;;;;5014216;28;1280;-70
2022/02/16 06:02:59;;;;;;;;;;;;;;;;;;5013696;28;1480;-70
2022/02/16 06:05:27;;;;;;;;;;;;;;;;;;5013022;28;1706;-70
2022/02/16 06:07:53;;;;;;;;;;;;;;;;;;5012106;28;1448;-70
2022/02/16 06:10:19;;;;;;;;;;;;;;;;;;5013540;28;1348;-70
2022/02/16 06:12:46;;;;;;;;;;;;;;;;;;5013268;28;1251;-70
2022/02/16 06:15:12;;;;;;;;;;;;;;;;;;5043678;23;4214;-68
2022/02/16 06:17:42;;;;;;;;;;;;;;;;;;5062772;28;1373;-68
2022/02/16 06:20:11;;;;;;;;;;;;;;;;;;5044916;28;1436;-69
2022/02/16 06:22:39;;;;;;;;;;;;;;;;;;5053349;28;1395;-69
2022/02/16 06:25:07;;;;;;;;;;;;;;;;;;5057943;28;1336;-69
2022/02/16 06:27:35;;;;;;;;;;;;;;;;;;5028037;28;1633;-68
2022/02/16 06:30:02;;;;;;;;;;;;;;;;;;5013292;28;1330;-67
2022/02/16 06:33:02;;;;;;;;;;;;;;;;;;5020425;28;1344;-69
2022/02/16 06:35:29;;;;;;;;;;;;;;;;;;5012816;28;1977;-68
2022/02/16 06:37:56;;;;;;;;;;;;;;;;;;5012993;28;1269;-67
2022/02/16 06:40:26;;;;;;;;;;;;;;;;;;5013071;28;1511;-67
2022/02/16 06:42:54;;;;;;;;;;;;;;;;;;5013025;28;1360;-68
2022/02/16 06:45:22;;;;;;;;;;;;;;;;;;5012912;28;1324;-68
2022/02/16 06:47:50;;;;;;;;;;;;;;;;;;5031526;28;1495;-69
2022/02/16 06:50:18;;;;;;;;;;;;;;;;;;5013187;28;1172;-69
2022/02/16 06:52:51;;;;;;;;;;;;;;;;;;5013292;28;1444;-68
2022/02/16 06:55:18;;;;;;;;;;;;;;;;;;5012701;28;1918;-68
2022/02/16 06:57:48;;;;;;;;;;;;;;;;;;5013259;28;1366;-68
2022/02/16 07:00:15;;;;;;;;;;;;;;;;;;5013151;28;1207;-68
2022/02/16 07:02:44;;;;;;;;;;;;;;;;;;5013392;28;1601;-67
2022/02/16 07:05:13;;;;;;;;;;;;;;;;;;5012671;28;1367;-69
2022/02/16 07:07:41;;;;;;;;;;;;;;;;;;5012917;28;1955;-68
2022/02/16 07:10:08;;;;;;;;;;;;;;;;;;5030708;28;848;-69
2022/02/16 07:12:34;;;;;;;;;;;;;;;;;;5013127;28;1156;-69
2022/02/16 07:15:00;;;;;;;;;;;;;;;;;;5012250;28;1448;-68
2022/02/16 07:17:27;;;;;;;;;;;;;;;;;;5030652;28;1922;-68
2022/02/16 07:19:54;;;;;;;;;;;;;;;;;;5012824;28;1324;-68
2022/02/16 07:22:24;;;;;;;;;;;;;;;;;;5013433;28;1661;-67
2022/02/16 07:24:52;;;;;;;;;;;;;;;;;;5012503;28;1463;-68
2022/02/16 07:27:18;;;;;;;;;;;;;;;;;;5014674;28;1570;-68
2022/02/16 07:29:45;;;;;;;;;;;;;;;;;;5016994;28;1358;-68
2022/02/16 07:32:11;;;;;;;;;;;;;;;;;;5034267;28;876;-68
2022/02/16 07:34:37;;;;;;;;;;;;;;;;;;5016343;28;1757;-68
2022/02/16 07:37:06;;;;;;;;;;;;;;;;;;5016624;28;1964;-68
2022/02/16 07:39:33;;;;;;;;;;;;;;;;;;5033142;28;1603;-68
2022/02/16 07:42:02;;;;;;;;;;;;;;;;;;5016551;28;1445;-69
2022/02/16 07:44:46;;;;;;;;;;;;;;;;;;5028605;28;2312;-69
2022/02/16 07:47:20;;;;;;;;;;;;;;;;;;5052870;28;1295;-69
2022/02/16 07:49:47;;;;;;;;;;;;;;;;;;5052643;28;1305;-68
2022/02/16 07:52:35;;;;;;;;;;;;;;;;;;5053892;28;1256;-69
2022/02/16 07:55:26;;;;;;;;;;;;;;;;;;5052473;28;1985;-68
2022/02/16 07:57:54;;;;;;;;;;;;;;;;;;5052571;28;1325;-69
2022/02/16 08:00:20;;;;;;;;;;;;;;;;;;5036092;28;1211;-68
2022/02/16 08:03:22;;;;;;;;;;;;;;;;;;5044208;28;1369;-68
2022/02/16 08:05:50;;;;;;;;;;;;;;;;;;5052247;28;1446;-68
2022/02/16 08:08:26;;;;;;;;;;;;;;;;;;5052610;28;1179;-69
2022/02/16 08:10:53;;;;;;;;;;;;;;;;;;5052401;28;1316;-68
2022/02/16 08:13:22;;;;;;;;;;;;;;;;;;5052645;28;1227;-68
2022/02/16 08:15:54;;;;;;;;;;;;;;;;;;5035016;28;1910;-68
2022/02/16 08:18:20;;;;;;;;;;;;;;;;;;5052378;28;1182;-68
2022/02/16 08:20:47;;;;;;;;;;;;;;;;;;5052170;28;1261;-68
2022/02/16 08:23:21;;;;;;;;;;;;;;;;;;5052538;28;1476;-69
2022/02/16 08:25:47;;;;;;;;;;;;;;;;;;5051906;28;1440;-67
2022/02/16 08:28:17;;;;;;;;;;;;;;;;;;5051182;28;1515;-68
2022/02/16 08:30:46;;;;;;;;;;;;;;;;;;5035601;28;1526;-68
2022/02/16 08:33:20;;;;;;;;;;;;;;;;;;5035470;28;1332;-68
2022/02/16 08:35:58;;;;;;;;;;;;;;;;;;5034770;28;2037;-68
2022/02/16 08:38:24;;;;;;;;;;;;;;;;;;5052489;28;915;-69
2022/02/16 08:40:50;;;;;;;;;;;;;;;;;;5049282;28;1158;-68
2022/02/16 08:43:17;;;;;;;;;;;;;;;;;;5033337;28;963;-69
2022/02/16 08:45:43;;;;;;;;;;;;;;;;;;5032420;28;1333;-68
2022/02/16 08:48:11;;;;;;;;;;;;;;;;;;5033228;28;951;-67
2022/02/16 08:50:37;;;;;;;;;;;;;;;;;;5033216;28;1121;-69
2022/02/16 08:53:03;;;;;;;;;;;;;;;;;;5033092;28;951;-68
2022/02/16 08:55:30;;;;;;;;;;;;;;;;;;5033155;28;1420;-68
2022/02/16 08:57:56;;;;;;;;;;;;;;;;;;5033827;28;1917;-68
2022/02/16 09:00:22;;;;;;;;;;;;;;;;;;5033035;28;901;-68
2022/02/16 09:02:49;;;;;;;;;;;;;;;;;;5033010;28;1081;-69
2022/02/16 09:05:16;;;;;;;;;;;;;;;;;;5032520;28;1328;-67
2022/02/16 09:07:43;;;;;;;;;;;;;;;;;;5033293;28;1121;-68
2022/02/16 09:10:10;;;;;;;;;;;;;;;;;;5051563;28;1225;-66
2022/02/16 09:12:37;;;;;;;;;;;;;;;;;;5015119;28;1085;-68
2022/02/16 09:15:03;;;;;;;;;;;;;;;;;;5047280;28;1520;-68
2022/02/16 09:17:29;;;;;;;;;;;;;;;;;;5032216;28;2070;-67
2022/02/16 09:19:56;;;;;;;;;;;;;;;;;;5049855;28;1252;-67
2022/02/16 09:22:24;;;;;;;;;;;;;;;;;;5046101;28;1194;-67
2022/02/16 09:24:50;;;;;;;;;;;;;;;;;;5052142;28;1423;-67
2022/02/16 09:27:19;;;;;;;;;;;;;;;;;;5052294;28;1058;-67
2022/02/16 09:29:45;;;;;;;;;;;;;;;;;;5051155;28;1148;-67
2022/02/16 09:32:12;;;;;;;;;;;;;;;;;;5052453;28;1125;-67
2022/02/16 09:34:38;;;;;;;;;;;;;;;;;;5033153;28;1330;-67
2022/02/16 09:37:04;;;;;;;;;;;;;;;;;;5052194;28;1910;-67
2022/02/16 09:39:32;;;;;;;;;;;;;;;;;;5051681;28;777;-67
2022/02/16 09:41:58;;;;;;;;;;;;;;;;;;5052222;28;992;-67
2022/02/16 09:44:31;;;;;;;;;;;;;;;;;;5051661;28;1400;-67
2022/02/16 09:46:58;;;;;;;;;;;;;;;;;;5051799;28;1058;-67
2022/02/16 09:49:24;;;;;;;;;;;;;;;;;;5051860;28;1070;-68
2022/02/16 09:51:50;;;;;;;;;;;;;;;;;;5051851;28;812;-67
2022/02/16 09:54:16;;;;;;;;;;;;;;;;;;5051614;28;1426;-67
2022/02/16 09:56:44;;;;;;;;;;;;;;;;;;5051400;28;1988;-67
2022/02/16 09:59:11;;;;;;;;;;;;;;;;;;5051615;28;742;-67
2022/02/16 10:01:52;;;;;;;;;;;;;;;;;;5051534;28;816;-67
2022/02/16 10:04:18;;;;;;;;;;;;;;;;;;5051151;28;1322;-67
2022/02/16 10:06:45;;;;;;;;;;;;;;;;;;5051842;28;1018;-67
2022/02/16 10:09:26;;;;;;;;;;;;;;;;;;5044033;28;1154;-67
2022/02/16 10:11:55;;;;;;;;;;;;;;;;;;5031701;28;987;-67
2022/02/16 10:14:21;;;;;;;;;;;;;;;;;;5030991;28;1341;-67
2022/02/16 10:16:48;;;;;;;;;;;;;;;;;;5031526;28;1978;-67
2022/02/16 10:19:14;;;;;;;;;;;;;;;;;;5031777;28;931;-67
2022/02/16 10:21:55;;;;;;;;;;;;;;;;;;5032485;28;1503;-67
2022/02/16 10:24:22;;;;;;;;;;;;;;;;;;5050639;28;1472;-67
2022/02/16 10:26:48;;;;;;;;;;;;;;;;;;5051386;28;796;-68
2022/02/16 10:29:19;;;;;;;;;;;;;;;;;;5051229;28;768;-68
2022/02/16 10:31:46;;;;;;;;;;;;;;;;;;5050897;28;954;-68
2022/02/16 10:34:12;;;;;;;;;;;;;;;;;;5050774;28;1322;-67
2022/02/16 10:36:38;;;;;;;;;;;;;;;;;;5036687;28;1975;-68
2022/02/16 10:39:06;;;;;;;;;;;;;;;;;;5031461;28;781;-67
2022/02/16 10:41:34;;;;;;;;;;;;;;;;;;5030421;28;995;-68
2022/02/16 10:44:02;;;;;;;;;;;;;;;;;;5031037;28;1341;-67
2022/02/16 10:46:30;;;;;;;;;;;;;;;;;;5030694;28;947;-67
2022/02/16 10:49:08;;;;;;;;;;;;;;;;;;5031259;28;1106;-67
2022/02/16 10:51:35;;;;;;;;;;;;;;;;;;5030765;28;710;-67
2022/02/16 10:54:10;;;;;;;;;;;;;;;;;;5030659;28;1360;-67
2022/02/16 10:56:36;;;;;;;;;;;;;;;;;;5030778;28;1914;-67
2022/02/16 10:59:02;;;;;;;;;;;;;;;;;;5030872;28;1040;-68
2022/02/16 11:01:30;;;;;;;;;;;;;;;;;;5042667;28;1063;-68
2022/02/16 11:03:57;;;;;;;;;;;;;;;;;;5070886;28;1325;-67
2022/02/16 11:06:24;;;;;;;;;;;;;;;;;;5070460;28;1112;-67
2022/02/16 11:08:50;;;;;;;;;;;;;;;;;;5070655;28;903;-68
2022/02/16 11:11:16;;;;;;;;;;;;;;;;;;5070502;28;805;-68
2022/02/16 11:13:43;;;;;;;;;;;;;;;;;;5070880;28;762;-68
2022/02/16 11:16:09;;;;;;;;;;;;;;;;;;5070466;28;1383;-68
2022/02/16 11:18:46;;;;;;;;;;;;;;;;;;5070307;28;1981;-70
2022/02/16 11:21:13;;;;;;;;;;;;;;;;;;5071206;28;893;-68
2022/02/16 11:23:42;;;;;;;;;;;;;;;;;;5070287;28;1081;-68
2022/02/16 11:26:26;;;;;;;;;;;;;;;;;;5070004;28;1300;-68
2022/02/16 11:28:52;;;;;;;;;;;;;;;;;;5070429;28;1070;-68
2022/02/16 11:31:25;;;;;;;;;;;;;;;;;;5070622;28;872;-67
2022/02/16 11:34:06;;;;;;;;;;;;;;;;;;5070585;28;1327;-68
2022/02/16 11:36:46;;;;;;;;;;;;;;;;;;5069451;28;1965;-68
2022/02/16 11:39:13;;;;;;;;;;;;;;;;;;5070477;28;638;-67
2022/02/16 11:41:39;;;;;;;;;;;;;;;;;;5070296;28;1090;-68
2022/02/16 11:44:08;;;;;;;;;;;;;;;;;;5068248;28;1496;-67
2022/02/16 11:46:38;;;;;;;;;;;;;;;;;;5068107;28;1169;-68
2022/02/16 11:49:06;;;;;;;;;;;;;;;;;;5050158;28;1120;-68
2022/02/16 11:51:36;;;;;;;;;;;;;;;;;;5050137;28;1098;-68
2022/02/16 11:54:21;;;;;;;;;;;;;;;;;;5050047;28;1345;-68
2022/02/16 11:56:48;;;;;;;;;;;;;;;;;;5050223;28;1976;-68
2022/02/16 11:59:16;;;;;;;;;;;;;;;;;;5050098;28;1085;-68
2022/02/16 12:01:57;;;;;;;;;;;;;;;;;;5031762;28;1232;-68
2022/02/16 12:04:30;;;;;;;;;;;;;;;;;;5049517;28;1514;-68
2022/02/16 12:07:04;;;;;;;;;;;;;;;;;;5050236;28;768;-68
2022/02/16 12:09:33;;;;;;;;;;;;;;;;;;5031865;28;1311;-68
2022/02/16 12:12:12;;;;;;;;;;;;;;;;;;5049995;28;978;-68
2022/02/16 12:17:44;;;;;;;;;;;;;;;;;;5034115;28;2099;-71
2022/02/16 12:20:11;;;;;;;;;;;;;;;;;;5035891;28;1154;-72
2022/02/16 12:22:38;;;;;;;;;;;;;;;;;;5043457;28;1058;-72
2022/02/16 12:25:09;;;;;;;;;;;;;;;;;;5035692;28;1558;-72
2022/02/16 12:27:36;;;;;;;;;;;;;;;;;;5036488;28;1257;-72
2022/02/16 12:30:03;;;;;;;;;;;;;;;;;;5054472;28;1070;-72
2022/02/16 12:32:30;;;;;;;;;;;;;;;;;;5054873;28;849;-72
2022/02/16 12:34:56;;;;;;;;;;;;;;;;;;5053353;28;1395;-72
2022/02/16 12:37:23;;;;;;;;;;;;;;;;;;5053434;28;1918;-73
2022/02/16 12:39:55;;;;;;;;;;;;;;;;;;5054174;28;1024;-72
2022/02/16 12:42:21;;;;;;;;;;;;;;;;;;5054158;28;1077;-71
2022/02/16 12:44:51;;;;;;;;;;;;;;;;;;5052395;28;2064;-72
2022/02/16 12:47:17;;;;;;;;;;;;;;;;;;5053392;28;1133;-73
2022/02/16 12:49:43;;;;;;;;;;;;;;;;;;5053635;28;895;-72
2022/02/16 12:52:10;;;;;;;;;;;;;;;;;;5035397;28;1130;-72
2022/02/16 12:54:38;;;;;;;;;;;;;;;;;;5038829;28;1151;-72
2022/02/16 12:57:05;;;;;;;;;;;;;;;;;;5033441;28;1906;-73
2022/02/16 12:59:33;;;;;;;;;;;;;;;;;;5036623;28;1078;-72
2022/02/16 13:02:01;;;;;;;;;;;;;;;;;;5016281;28;1485;-73
2022/02/16 13:04:29;;;;;;;;;;;;;;;;;;5033747;28;908;-73
2022/02/16 13:06:56;;;;;;;;;;;;;;;;;;5033795;28;1316;-72
2022/02/16 13:09:26;;;;;;;;;;;;;;;;;;5033464;28;1094;-73
2022/02/16 13:11:53;;;;;;;;;;;;;;;;;;5033421;28;1114;-72
2022/02/16 13:14:20;;;;;;;;;;;;;;;;;;5032607;28;948;-72
2022/02/16 13:16:53;;;;;;;;;;;;;;;;;;5033780;28;1320;-73
2022/02/16 13:19:34;;;;;;;;;;;;;;;;;;5034052;28;1976;-72
2022/02/16 13:22:05;;;;;;;;;;;;;;;;;;5033350;28;1562;-72
2022/02/16 13:24:32;;;;;;;;;;;;;;;;;;5033498;28;1066;-72
2022/02/16 13:27:01;;;;;;;;;;;;;;;;;;5033945;28;1394;-73
2022/02/16 13:29:28;;;;;;;;;;;;;;;;;;5034746;28;1062;-73
2022/02/16 13:31:54;;;;;;;;;;;;;;;;;;5033242;28;864;-72
2022/02/16 13:34:21;;;;;;;;;;;;;;;;;;5034120;28;837;-73
2022/02/16 13:36:47;;;;;;;;;;;;;;;;;;5034000;28;1399;-73
2022/02/16 13:39:16;;;;;;;;;;;;;;;;;;5033550;28;1910;-73
2022/02/16 13:41:55;;;;;;;;;;;;;;;;;;5021378;28;1208;-72
2022/02/16 13:44:22;;;;;;;;;;;;;;;;;;5015103;28;1444;-73
2022/02/16 13:46:49;;;;;;;;;;;;;;;;;;5015550;28;1330;-73
2022/02/16 13:49:16;;;;;;;;;;;;;;;;;;5032339;28;1082;-73
2022/02/16 13:51:49;;;;;;;;;;;;;;;;;;5014891;28;1247;-72
2022/02/16 13:54:20;;;;;;;;;;;;;;;;;;5031941;28;1027;-73
2022/02/16 13:56:51;;;;;;;;;;;;;;;;;;5032355;28;1369;-73
2022/02/16 13:59:17;;;;;;;;;;;;;;;;;;5032801;28;1977;-73
2022/02/16 14:01:44;;;;;;;;;;;;;;;;;;5015238;28;1255;-72
2022/02/16 14:04:10;;;;;;;;;;;;;;;;;;5032553;28;1109;-72
2022/02/16 14:06:37;;;;;;;;;;;;;;;;;;5031828;28;1318;-73
2022/02/16 14:09:05;;;;;;;;;;;;;;;;;;5032324;28;1133;-73
2022/02/16 14:11:33;;;;;;;;;;;;;;;;;;5032179;28;812;-73
2022/02/16 14:13:59;;;;;;;;;;;;;;;;;;5032211;28;713;-71
2022/02/16 14:16:26;;;;;;;;;;;;;;;;;;5016546;28;1549;-72
2022/02/16 14:21:32;;;;;;;;;;;;;;;;;;5030752;28;1085;-73
2022/02/16 14:23:59;;;;;;;;;;;;;;;;;;5031938;28;919;-73
2022/02/16 14:26:26;;;;;;;;;;;;;;;;;;5032552;28;1385;-73
2022/02/16 14:28:53;;;;;;;;;;;;;;;;;;5033768;28;1063;-72
2022/02/16 14:31:19;;;;;;;;;;;;;;;;;;5034768;28;959;-73
2022/02/16 14:33:45;;;;;;;;;;;;;;;;;;5033052;28;1082;-73
2022/02/16 14:36:12;;;;;;;;;;;;;;;;;;5031838;28;1327;-73
2022/02/16 14:38:38;;;;;;;;;;;;;;;;;;5033098;28;1976;-73
2022/02/16 14:41:04;;;;;;;;;;;;;;;;;;5032952;28;1077;-73
2022/02/16 14:43:31;;;;;;;;;;;;;;;;;;5031848;28;1089;-72
2022/02/16 14:45:58;;;;;;;;;;;;;;;;;;5031411;28;1348;-72
2022/02/16 14:48:24;;;;;;;;;;;;;;;;;;5031427;28;1034;-71
2022/02/16 14:50:50;;;;;;;;;;;;;;;;;;5033383;28;1074;-72
2022/02/16 14:53:17;;;;;;;;;;;;;;;;;;5034142;28;952;-73
2022/02/16 14:55:50;;;;;;;;;;;;;;;;;;5031982;28;1448;-73
2022/02/16 14:58:16;;;;;;;;;;;;;;;;;;5030998;28;1977;-74
2022/02/16 15:00:43;;;;;;;;;;;;;;;;;;5033720;28;900;-73
2022/02/16 15:03:12;;;;;;;;;;;;;;;;;;5036550;28;972;-73
2022/02/16 15:05:38;;;;;;;;;;;;;;;;;;5020679;28;1409;-72
2022/02/16 15:08:04;;;;;;;;;;;;;;;;;;5015388;28;1120;-73
2022/02/16 15:10:31;;;;;;;;;;;;;;;;;;5032864;28;1031;-73
2022/02/16 15:12:57;;;;;;;;;;;;;;;;;;5031696;28;746;-73
2022/02/16 15:15:23;;;;;;;;;;;;;;;;;;5031645;28;1334;-73
2022/02/16 15:17:49;;;;;;;;;;;;;;;;;;5032035;28;1926;-73
2022/02/16 15:20:17;;;;;;;;;;;;;;;;;;5028197;28;2058;-73
2022/02/16 15:22:43;;;;;;;;;;;;;;;;;;5030457;28;1195;-73
2022/02/16 15:25:10;;;;;;;;;;;;;;;;;;5032048;28;1387;-73
2022/02/16 15:27:36;;;;;;;;;;;;;;;;;;5031589;28;797;-73
2022/02/16 15:30:03;;;;;;;;;;;;;;;;;;5031190;28;1122;-72
2022/02/16 15:32:29;;;;;;;;;;;;;;;;;;5030848;28;840;-73
2022/02/16 15:34:56;;;;;;;;;;;;;;;;;;5030644;28;1419;-72
2022/02/16 15:37:23;;;;;;;;;;;;;;;;;;5030974;28;1210;-72
2022/02/16 15:39:49;;;;;;;;;;;;;;;;;;5030929;28;1976;-72
2022/02/16 15:42:16;;;;;;;;;;;;;;;;;;5030452;28;1117;-72
2022/02/16 15:44:42;;;;;;;;;;;;;;;;;;5030343;28;1078;-72
2022/02/16 15:47:09;;;;;;;;;;;;;;;;;;5030551;28;1307;-72
2022/02/16 15:49:35;;;;;;;;;;;;;;;;;;5034374;28;868;-72
2022/02/16 15:52:02;;;;;;;;;;;;;;;;;;5034494;28;817;-72
2022/02/16 15:54:30;;;;;;;;;;;;;;;;;;5034017;28;1074;-71
2022/02/16 15:56:56;;;;;;;;;;;;;;;;;;5016741;28;1333;-72
2022/02/16 15:59:23;;;;;;;;;;;;;;;;;;5034189;28;1915;-72
2022/02/16 16:01:49;;;;;;;;;;;;;;;;;;5016395;28;1293;-72
2022/02/16 16:04:15;;;;;;;;;;;;;;;;;;5034018;28;1078;-73
2022/02/16 16:06:41;;;;;;;;;;;;;;;;;;5034144;28;1373;-72
2022/02/16 16:09:08;;;;;;;;;;;;;;;;;;5034372;28;1121;-72
2022/02/16 16:11:35;;;;;;;;;;;;;;;;;;5016328;28;1031;-71
2022/02/16 16:14:01;;;;;;;;;;;;;;;;;;5016234;28;1183;-71
2022/02/16 16:16:29;;;;;;;;;;;;;;;;;;5033723;28;1408;-71
2022/02/16 16:18:55;;;;;;;;;;;;;;;;;;5034334;28;1977;-72
2022/02/16 16:21:21;;;;;;;;;;;;;;;;;;5016904;28;1496;-72
2022/02/16 16:23:47;;;;;;;;;;;;;;;;;;5050644;28;1504;-72
2022/02/16 16:26:14;;;;;;;;;;;;;;;;;;5053774;28;1393;-72
2022/02/16 16:28:42;;;;;;;;;;;;;;;;;;5021215;28;1112;-72
2022/02/16 16:31:08;;;;;;;;;;;;;;;;;;5037942;28;1066;-72
2022/02/16 16:33:34;;;;;;;;;;;;;;;;;;5033205;28;1094;-71
2022/02/16 16:36:00;;;;;;;;;;;;;;;;;;5033105;28;1367;-72
2022/02/16 16:38:27;;;;;;;;;;;;;;;;;;5033447;28;1914;-72
2022/02/16 16:40:53;;;;;;;;;;;;;;;;;;5033537;28;1078;-71
2022/02/16 16:43:19;;;;;;;;;;;;;;;;;;5015824;28;1596;-71
2022/02/16 16:45:47;;;;;;;;;;;;;;;;;;5033294;28;1298;-71
2022/02/16 16:48:13;;;;;;;;;;;;;;;;;;5016610;28;1315;-73
2022/02/16 16:50:40;;;;;;;;;;;;;;;;;;5034133;28;789;-74
2022/02/16 16:53:07;;;;;;;;;;;;;;;;;;5034170;28;1059;-73
2022/02/16 16:55:33;;;;;;;;;;;;;;;;;;5033839;28;1375;-73
2022/02/16 16:57:59;;;;;;;;;;;;;;;;;;5034161;28;778;-72
2022/02/16 17:00:26;;;;;;;;;;;;;;;;;;5033741;28;1981;-72
2022/02/16 17:02:55;;;;;;;;;;;;;;;;;;5034894;28;817;-72
2022/02/16 17:05:21;;;;;;;;;;;;;;;;;;5034354;28;1317;-73
2022/02/16 17:07:48;;;;;;;;;;;;;;;;;;5034388;28;729;-73
2022/02/16 17:10:14;;;;;;;;;;;;;;;;;;5034825;28;928;-73
2022/02/16 17:12:41;;;;;;;;;;;;;;;;;;5034878;28;813;-72
2022/02/16 17:15:08;;;;;;;;;;;;;;;;;;5032342;28;1329;-72
2022/02/16 17:17:34;;;;;;;;;;;;;;;;;;5021735;28;1473;-72
2022/02/16 17:20:01;;;;;;;;;;;;;;;;;;5011633;28;1914;-73